createdAt,value
2019-04-04T00:00:07.363Z,10.63
2019-04-04T00:02:33.533Z,11.70
2019-04-04T00:04:59.768Z,10.03
2019-04-04T00:07:28.711Z,10.23
2019-04-04T00:09:53.809Z,10.80
2019-04-04T00:12:19.965Z,10.98
2019-04-04T00:14:46.153Z,11.20
2019-04-04T00:17:12.359Z,10.53
2019-04-04T00:19:38.492Z,10.82
2019-04-04T00:22:04.965Z,11.18
2019-04-04T00:24:31.754Z,11.00
2019-04-04T00:26:57.915Z,10.68
2019-04-04T00:29:24.065Z,11.30
2019-04-04T00:31:50.301Z,10.93
2019-04-04T00:34:16.609Z,10.88
2019-04-04T00:36:42.753Z,11.68
2019-04-04T00:39:09.576Z,11.25
2019-04-04T00:41:36.158Z,10.65
2019-04-04T00:44:02.338Z,11.12
2019-04-04T00:46:29.040Z,10.95
2019-04-04T00:48:56.381Z,11.55
2019-04-04T00:51:22.536Z,10.95
2019-04-04T00:53:48.760Z,10.45
2019-04-04T00:56:16.071Z,10.13
2019-04-04T00:58:42.806Z,10.23
2019-04-04T01:01:08.968Z,10.95
2019-04-04T01:03:35.140Z,11.33
2019-04-04T01:06:03.492Z,10.85
2019-04-04T01:08:29.189Z,10.85
2019-04-04T01:10:55.356Z,10.50
2019-04-04T01:13:23.650Z,10.68
2019-04-04T01:15:49.452Z,10.58
2019-04-04T01:18:15.598Z,10.95
2019-04-04T01:20:41.766Z,10.32
2019-04-04T01:23:08.016Z,9.33
2019-04-04T01:25:34.177Z,11.75
2019-04-04T01:28:00.346Z,10.68
2019-04-04T01:30:26.505Z,11.00
2019-04-04T01:32:52.676Z,15.60
2019-04-04T01:35:18.826Z,13.83
2019-04-04T01:37:44.989Z,15.20
2019-04-04T01:40:11.137Z,11.63
2019-04-04T01:42:38.770Z,10.93
2019-04-04T01:45:05.037Z,11.22
2019-04-04T01:47:31.208Z,11.57
2019-04-04T01:49:57.379Z,10.25
2019-04-04T01:52:23.530Z,11.25
2019-04-04T01:54:49.745Z,10.95
2019-04-04T01:57:16.037Z,11.48
2019-04-04T01:59:43.928Z,11.10
2019-04-04T02:02:10.077Z,11.73
2019-04-04T02:04:36.428Z,11.45
2019-04-04T02:07:02.588Z,11.12
2019-04-04T02:09:28.757Z,11.55
2019-04-04T02:11:55.154Z,11.00
2019-04-04T02:14:21.324Z,11.35
2019-04-04T02:16:51.020Z,11.73
2019-04-04T02:19:15.358Z,79.92
2019-04-04T02:21:41.516Z,18.10
2019-04-04T02:24:07.665Z,14.40
2019-04-04T02:26:35.792Z,12.73
2019-04-04T02:29:01.717Z,12.00
2019-04-04T02:31:27.870Z,12.58
2019-04-04T02:33:54.122Z,11.40
2019-04-04T02:36:20.291Z,11.18
2019-04-04T02:38:46.457Z,10.98
2019-04-04T02:41:15.347Z,11.25
2019-04-04T02:43:40.580Z,12.00
2019-04-04T02:46:11.194Z,11.40
2019-04-04T02:48:34.614Z,11.65
2019-04-04T02:51:00.780Z,11.80
2019-04-04T02:53:27.000Z,11.57
2019-04-04T02:55:53.175Z,12.43
2019-04-04T02:58:19.337Z,11.12
2019-04-04T03:00:45.493Z,12.05
2019-04-04T03:03:11.713Z,12.75
2019-04-04T03:05:37.888Z,11.45
2019-04-04T03:08:04.606Z,12.63
2019-04-04T03:10:30.869Z,11.53
2019-04-04T03:12:58.697Z,11.63
2019-04-04T03:15:24.956Z,11.00
2019-04-04T03:17:51.121Z,10.88
2019-04-04T03:20:17.672Z,10.48
2019-04-04T03:22:44.021Z,10.55
2019-04-04T03:25:14.268Z,10.68
2019-04-04T03:27:38.079Z,10.98
2019-04-04T03:30:04.240Z,10.63
2019-04-04T03:32:30.382Z,11.40
2019-04-04T03:34:56.571Z,10.30
2019-04-04T03:37:22.699Z,11.35
2019-04-04T03:39:51.876Z,10.63
2019-04-04T03:42:16.761Z,10.93
2019-04-04T03:44:42.931Z,10.60
2019-04-04T03:47:10.427Z,11.30
2019-04-04T03:49:36.970Z,11.25
2019-04-04T03:52:03.127Z,11.68
2019-04-04T03:54:29.328Z,11.75
2019-04-04T03:56:55.482Z,10.93
2019-04-04T03:59:21.641Z,11.20
2019-04-04T04:01:47.793Z,18.98
2019-04-04T04:04:14.028Z,12.58
2019-04-04T04:06:41.958Z,11.95
2019-04-04T04:09:08.068Z,11.63
2019-04-04T04:11:34.690Z,11.50
2019-04-04T04:14:02.126Z,18.60
2019-04-04T04:16:28.305Z,19.70
2019-04-04T04:18:55.375Z,14.85
2019-04-04T04:21:22.178Z,11.63
2019-04-04T04:23:49.971Z,11.20
2019-04-04T04:26:16.370Z,11.10
2019-04-04T04:28:42.529Z,10.82
2019-04-04T04:31:08.701Z,11.40
2019-04-04T04:33:34.930Z,10.78
2019-04-04T04:36:01.089Z,11.10
2019-04-04T04:38:27.247Z,9.40
2019-04-04T04:40:53.404Z,10.53
2019-04-04T04:43:19.630Z,10.35
2019-04-04T04:45:45.791Z,10.63
2019-04-04T04:48:11.951Z,10.50
2019-04-04T04:50:40.175Z,10.55
2019-04-04T04:53:06.097Z,10.70
2019-04-04T04:55:32.261Z,12.03
2019-04-04T04:57:58.429Z,12.03
2019-04-04T05:00:27.488Z,12.20
2019-04-04T05:02:53.209Z,12.78
2019-04-04T05:05:19.901Z,14.35
2019-04-04T05:07:46.048Z,13.70
2019-04-04T05:10:12.951Z,14.78
2019-04-04T05:12:40.098Z,14.07
2019-04-04T05:15:06.266Z,14.18
2019-04-04T05:17:32.423Z,13.90
2019-04-04T05:19:58.587Z,13.80
2019-04-04T05:22:24.750Z,13.50
2019-04-04T05:25:06.777Z,14.07
2019-04-04T05:27:18.784Z,13.80
2019-04-04T05:29:45.562Z,13.22
2019-04-04T05:32:11.787Z,13.03
2019-04-04T05:34:37.944Z,13.70
2019-04-04T05:37:05.132Z,14.20
2019-04-04T05:39:31.993Z,13.32
2019-04-04T05:42:00.505Z,12.65
2019-04-04T05:44:26.047Z,13.62
2019-04-04T05:46:52.221Z,13.08
2019-04-04T05:49:18.360Z,13.50
2019-04-04T05:51:46.313Z,14.60
2019-04-04T05:54:12.452Z,14.03
2019-04-04T05:56:38.609Z,13.08
2019-04-04T05:59:04.756Z,13.00
2019-04-04T06:01:30.938Z,12.53
2019-04-04T06:03:57.106Z,12.60
2019-04-04T06:06:23.251Z,12.93
2019-04-04T06:08:49.422Z,12.03
2019-04-04T06:11:15.589Z,12.15
2019-04-04T06:13:41.777Z,11.10
2019-04-04T06:16:07.943Z,11.65
2019-04-04T06:18:34.102Z,11.50
2019-04-04T06:21:00.258Z,11.75
2019-04-04T06:23:26.481Z,10.85
2019-04-04T06:25:52.644Z,10.75
2019-04-04T06:28:18.805Z,10.75
2019-04-04T06:30:44.975Z,11.03
2019-04-04T06:33:11.197Z,10.82
2019-04-04T06:35:39.776Z,9.98
2019-04-04T06:38:05.233Z,10.65
2019-04-04T06:40:31.393Z,10.43
2019-04-04T06:42:57.581Z,12.15
2019-04-04T06:45:23.733Z,10.50
2019-04-04T06:47:49.901Z,11.25
2019-04-04T06:50:16.057Z,10.63
2019-04-04T06:52:42.295Z,11.88
2019-04-04T06:55:08.453Z,11.05
2019-04-04T06:57:36.746Z,12.43
2019-04-04T07:00:02.497Z,11.20
2019-04-04T07:02:28.712Z,10.85
2019-04-04T07:04:54.873Z,10.53
2019-04-04T07:07:21.032Z,11.57
2019-04-04T07:09:48.201Z,10.88
2019-04-04T07:12:22.234Z,10.25
2019-04-04T07:14:45.910Z,9.65
2019-04-04T07:17:10.871Z,10.98
2019-04-04T07:19:37.031Z,9.95
2019-04-04T07:22:03.196Z,10.70
2019-04-04T07:24:31.158Z,10.25
2019-04-04T07:26:57.228Z,10.08
2019-04-04T07:29:25.192Z,10.05
2019-04-04T07:31:51.262Z,10.28
2019-04-04T07:34:17.429Z,10.03
2019-04-04T07:36:43.600Z,9.88
2019-04-04T07:39:12.251Z,9.75
2019-04-04T07:41:40.177Z,9.20
2019-04-04T07:44:05.570Z,10.03
2019-04-04T07:46:31.737Z,9.58
2019-04-04T07:48:57.893Z,9.78
2019-04-04T07:51:24.040Z,10.38
2019-04-04T07:53:50.204Z,9.35
2019-04-04T07:56:16.361Z,9.65
2019-04-04T07:58:42.528Z,9.43
2019-04-04T08:01:08.692Z,9.65
2019-04-04T08:03:34.893Z,9.35
2019-04-04T08:06:01.055Z,9.25
2019-04-04T08:08:27.208Z,9.75
2019-04-04T08:10:53.369Z,9.50
2019-04-04T08:13:19.607Z,8.35
2019-04-04T08:15:45.761Z,9.50
2019-04-04T08:18:11.920Z,9.00
2019-04-04T08:20:38.085Z,10.32
2019-04-04T08:23:04.344Z,9.05
2019-04-04T08:25:30.510Z,9.58
2019-04-04T08:27:56.681Z,9.30
2019-04-04T08:30:22.834Z,9.13
2019-04-04T08:32:49.060Z,8.95
2019-04-04T08:35:15.218Z,10.48
2019-04-04T08:37:41.385Z,9.08
2019-04-04T08:40:07.549Z,9.75
2019-04-04T08:42:33.773Z,9.40
2019-04-04T08:44:59.930Z,9.33
2019-04-04T08:47:26.095Z,8.85
2019-04-04T08:49:52.262Z,9.40
2019-04-04T08:52:20.763Z,9.25
2019-04-04T08:54:46.341Z,8.60
2019-04-04T08:57:12.488Z,9.28
2019-04-04T08:59:38.644Z,9.58
2019-04-04T09:02:04.812Z,8.45
2019-04-04T09:04:30.988Z,9.10
2019-04-04T09:06:57.147Z,9.15
2019-04-04T09:09:23.371Z,9.18
2019-04-04T09:11:49.585Z,8.55
2019-04-04T09:14:15.731Z,8.95
2019-04-04T09:16:41.883Z,8.53
2019-04-04T09:19:08.037Z,8.28
2019-04-04T09:21:34.222Z,8.83
2019-04-04T09:24:00.784Z,9.23
2019-04-04T09:26:27.130Z,8.05
2019-04-04T09:28:53.298Z,8.08
2019-04-04T09:31:19.465Z,8.05
2019-04-04T09:33:45.710Z,7.80
2019-04-04T09:36:11.862Z,8.28
2019-04-04T09:38:38.018Z,8.30
2019-04-04T09:41:04.437Z,7.60
2019-04-04T09:43:30.802Z,8.48
2019-04-04T09:45:56.967Z,8.03
2019-04-04T09:48:23.173Z,7.45
2019-04-04T09:50:49.290Z,7.90
2019-04-04T09:53:15.547Z,8.08
2019-04-04T09:55:41.713Z,7.67
2019-04-04T09:58:07.871Z,7.17
2019-04-04T10:00:34.018Z,7.40
2019-04-04T10:03:00.278Z,7.47
2019-04-04T10:05:26.431Z,7.65
2019-04-04T10:07:52.600Z,7.55
2019-04-04T10:10:18.759Z,7.50
2019-04-04T10:12:44.948Z,7.58
2019-04-04T10:15:11.122Z,6.95
2019-04-04T10:17:37.268Z,7.67
2019-04-04T10:20:03.426Z,6.92
2019-04-04T10:22:29.668Z,7.20
2019-04-04T10:24:55.839Z,7.40
2019-04-04T10:27:21.996Z,7.00
2019-04-04T10:29:48.148Z,6.72
2019-04-04T10:32:14.398Z,7.28
2019-04-04T10:34:40.556Z,7.97
2019-04-04T10:37:06.714Z,6.42
2019-04-04T10:39:32.969Z,7.17
2019-04-04T10:41:59.108Z,7.12
2019-04-04T10:44:25.268Z,7.10
2019-04-04T10:46:51.424Z,7.25
2019-04-04T10:49:17.605Z,7.47
2019-04-04T10:51:43.795Z,6.83
2019-04-04T10:54:09.964Z,6.78
2019-04-04T10:56:36.342Z,6.67
2019-04-04T10:59:02.576Z,7.05
2019-04-04T11:01:28.731Z,6.97
2019-04-04T11:03:54.879Z,6.90
2019-04-04T11:06:21.040Z,7.17
2019-04-04T11:08:47.201Z,6.47
2019-04-04T11:11:13.380Z,6.72
2019-04-04T11:13:39.524Z,7.00
2019-04-04T11:16:05.680Z,6.85
2019-04-04T11:18:31.843Z,6.50
2019-04-04T11:20:57.992Z,7.03
2019-04-04T11:23:24.193Z,6.55
2019-04-04T11:25:50.338Z,6.28
2019-04-04T11:28:16.498Z,6.33
2019-04-04T11:30:42.652Z,6.75
2019-04-04T11:33:08.906Z,6.40
2019-04-04T11:35:35.056Z,6.50
2019-04-04T11:38:01.218Z,6.55
2019-04-04T11:40:27.370Z,5.75
2019-04-04T11:42:53.532Z,6.80
2019-04-04T11:45:19.688Z,6.58
2019-04-04T11:47:45.830Z,5.90
2019-04-04T11:50:11.998Z,6.28
2019-04-04T11:52:38.191Z,5.92
2019-04-04T11:55:04.354Z,5.72
2019-04-04T11:57:30.517Z,5.67
2019-04-04T11:59:56.677Z,5.85
2019-04-04T12:02:22.906Z,6.03
2019-04-04T12:04:49.061Z,6.37
2019-04-04T12:07:15.223Z,6.35
2019-04-04T12:09:41.381Z,5.92
2019-04-04T12:12:07.551Z,6.25
2019-04-04T12:14:33.703Z,5.75
2019-04-04T12:16:59.867Z,5.47
2019-04-04T12:19:26.032Z,6.08
2019-04-04T12:21:52.233Z,6.05
2019-04-04T12:24:18.388Z,5.83
2019-04-04T12:26:44.531Z,5.97
2019-04-04T12:29:10.682Z,6.10
2019-04-04T12:31:36.841Z,5.83
2019-04-04T12:34:03.008Z,5.80
2019-04-04T12:36:29.170Z,5.72
2019-04-04T12:38:55.326Z,5.03
2019-04-04T12:41:21.510Z,5.70
2019-04-04T12:43:47.664Z,5.72
2019-04-04T12:46:13.821Z,6.00
2019-04-04T12:48:39.966Z,5.28
2019-04-04T12:51:06.153Z,5.05
2019-04-04T12:53:32.813Z,5.70
2019-04-04T12:55:59.150Z,5.20
2019-04-04T12:58:25.311Z,5.80
2019-04-04T13:00:51.463Z,5.58
2019-04-04T13:03:17.644Z,6.12
2019-04-04T13:05:43.804Z,6.12
2019-04-04T13:08:09.949Z,5.72
2019-04-04T13:10:36.107Z,5.53
2019-04-04T13:13:02.324Z,5.95
2019-04-04T13:15:28.490Z,5.53
2019-04-04T13:17:54.657Z,5.90
2019-04-04T13:20:20.811Z,5.40
2019-04-04T13:22:47.071Z,6.03
2019-04-04T13:25:13.226Z,5.45
2019-04-04T13:27:39.381Z,5.97
2019-04-04T13:30:05.535Z,5.75
2019-04-04T13:32:31.759Z,5.20
2019-04-04T13:34:59.609Z,5.72
2019-04-04T13:37:25.788Z,5.17
2019-04-04T13:39:51.955Z,5.47
2019-04-04T13:42:18.137Z,4.85
2019-04-04T13:44:44.993Z,5.08
2019-04-04T13:47:11.331Z,4.92
2019-04-04T13:49:37.480Z,5.42
2019-04-04T13:52:03.687Z,5.20
2019-04-04T13:54:29.807Z,5.25
2019-04-04T13:56:55.975Z,5.28
2019-04-04T13:59:22.140Z,4.72
2019-04-04T14:01:48.350Z,5.20
2019-04-04T14:04:14.516Z,4.97
2019-04-04T14:06:40.674Z,4.78
2019-04-04T14:09:06.841Z,5.05
2019-04-04T14:11:33.064Z,4.87
2019-04-04T14:13:59.217Z,5.25
2019-04-04T14:16:25.376Z,5.17
2019-04-04T14:18:51.529Z,5.78
2019-04-04T14:21:17.698Z,5.08
2019-04-04T14:23:45.319Z,5.90
2019-04-04T14:26:11.604Z,4.58
2019-04-04T14:28:37.759Z,4.85
2019-04-04T14:31:03.925Z,6.03
2019-04-04T14:33:30.082Z,4.83
2019-04-04T14:35:56.223Z,5.55
2019-04-04T14:38:22.382Z,5.30
2019-04-04T14:40:48.613Z,5.10
2019-04-04T14:43:14.771Z,5.12
2019-04-04T14:45:40.931Z,5.37
2019-04-04T14:48:10.626Z,5.42
2019-04-04T14:50:34.976Z,5.40
2019-04-04T14:53:01.224Z,4.80
2019-04-04T14:55:27.435Z,5.05
2019-04-04T14:57:53.610Z,5.17
2019-04-04T15:00:19.762Z,5.00
2019-04-04T15:02:45.954Z,4.53
2019-04-04T15:05:12.114Z,5.50
2019-04-04T15:07:38.283Z,4.78
2019-04-04T15:10:04.431Z,5.10
2019-04-04T15:12:30.670Z,5.00
2019-04-04T15:14:56.834Z,4.80
2019-04-04T15:17:22.981Z,5.22
2019-04-04T15:19:49.134Z,5.37
2019-04-04T15:22:15.350Z,4.80
2019-04-04T15:24:41.596Z,4.80
2019-04-04T15:27:07.755Z,4.90
2019-04-04T15:29:33.904Z,4.72
2019-04-04T15:32:00.096Z,4.83
2019-04-04T15:34:26.250Z,4.20
2019-04-04T15:36:52.409Z,5.12
2019-04-04T15:39:18.566Z,4.90
2019-04-04T15:41:44.712Z,5.10
2019-04-04T15:44:10.880Z,5.25
2019-04-04T15:46:37.045Z,4.92
2019-04-04T15:49:03.199Z,5.33
2019-04-04T15:51:29.416Z,4.97
2019-04-04T15:53:55.571Z,5.85
2019-04-04T15:56:21.733Z,5.58
2019-04-04T15:58:47.886Z,5.50
2019-04-04T16:01:14.100Z,5.25
2019-04-04T16:03:40.255Z,5.03
2019-04-04T16:06:06.488Z,5.10
2019-04-04T16:08:32.651Z,5.08
2019-04-04T16:10:59.821Z,4.80
2019-04-04T16:13:26.083Z,4.67
2019-04-04T16:15:52.255Z,5.15
2019-04-04T16:18:18.412Z,5.33
2019-04-04T16:20:44.567Z,5.60
2019-04-04T16:23:10.723Z,5.62
2019-04-04T16:25:36.879Z,4.87
2019-04-04T16:28:03.049Z,4.85
2019-04-04T16:30:29.202Z,5.28
2019-04-04T16:32:55.378Z,4.95
2019-04-04T16:35:21.529Z,4.35
2019-04-04T16:37:47.694Z,4.90
2019-04-04T16:40:13.836Z,5.00
2019-04-04T16:42:40.030Z,5.05
2019-04-04T16:45:07.544Z,5.40
2019-04-04T16:47:33.909Z,5.00
2019-04-04T16:50:00.075Z,4.90
2019-04-04T16:52:26.277Z,5.05
2019-04-04T16:54:53.777Z,5.05
2019-04-04T16:57:20.119Z,5.33
2019-04-04T16:59:46.234Z,5.12
2019-04-04T17:02:12.422Z,5.00
2019-04-04T17:04:38.570Z,5.10
2019-04-04T17:07:04.722Z,5.10
2019-04-04T17:09:30.882Z,5.15
2019-04-04T17:11:57.109Z,4.92
2019-04-04T17:14:23.276Z,13.68
2019-04-04T17:16:49.436Z,13.15
2019-04-04T17:19:15.610Z,12.37
2019-04-04T17:21:41.817Z,12.85
2019-04-04T17:24:07.979Z,13.50
2019-04-04T17:26:34.137Z,14.40
2019-04-04T17:29:00.294Z,14.40
2019-04-04T17:31:26.455Z,14.50
2019-04-04T17:33:52.704Z,13.08
2019-04-04T17:36:21.248Z,13.28
2019-04-04T17:38:47.086Z,14.18
2019-04-04T17:41:13.969Z,13.72
2019-04-04T17:43:40.333Z,13.70
2019-04-04T17:46:06.950Z,14.90
2019-04-04T17:48:33.574Z,14.00
2019-04-04T17:51:00.038Z,18.73
2019-04-04T17:53:26.190Z,16.23
2019-04-04T17:55:54.838Z,18.60
2019-04-04T17:58:20.765Z,17.90
2019-04-04T18:00:47.122Z,15.25
2019-04-04T18:03:13.540Z,14.53
2019-04-04T18:05:39.685Z,15.48
2019-04-04T18:08:05.879Z,15.05
2019-04-04T18:10:32.037Z,14.75
2019-04-04T18:12:58.281Z,14.18
2019-04-04T18:15:24.450Z,13.72
2019-04-04T18:17:50.658Z,15.10
2019-04-04T18:20:16.815Z,13.18
2019-04-04T18:22:42.973Z,13.18
2019-04-04T18:25:09.138Z,12.47
2019-04-04T18:27:35.282Z,13.10
2019-04-04T18:30:01.429Z,12.98
2019-04-04T18:32:27.589Z,13.28
2019-04-04T18:34:53.751Z,13.05
2019-04-04T18:37:19.898Z,13.80
2019-04-04T18:39:46.109Z,13.43
2019-04-04T18:42:12.300Z,15.60
2019-04-04T18:44:38.523Z,12.75
2019-04-04T18:47:04.668Z,12.78
2019-04-04T18:49:31.071Z,12.13
2019-04-04T18:51:57.344Z,12.40
2019-04-04T18:54:23.505Z,11.95
2019-04-04T18:56:49.667Z,12.90
2019-04-04T18:59:15.831Z,17.57
2019-04-04T19:01:42.065Z,22.82
2019-04-04T19:04:08.213Z,24.98
2019-04-04T19:06:34.372Z,22.13
2019-04-04T19:09:00.522Z,21.15
2019-04-04T19:11:26.780Z,19.52
2019-04-04T19:13:52.950Z,19.55
2019-04-04T19:16:19.094Z,18.20
2019-04-04T19:18:45.248Z,19.23
2019-04-04T19:21:11.462Z,19.25
2019-04-04T19:23:48.609Z,19.10
2019-04-04T19:26:05.509Z,18.80
2019-04-04T19:28:31.666Z,18.42
2019-04-04T19:30:58.655Z,17.55
2019-04-04T19:33:24.987Z,18.07
2019-04-04T19:35:51.172Z,16.73
2019-04-04T19:38:17.347Z,15.53
2019-04-04T19:40:43.547Z,17.70
2019-04-04T19:43:18.067Z,16.77
2019-04-04T19:45:37.630Z,16.90
2019-04-04T19:48:03.789Z,15.43
2019-04-04T19:50:30.002Z,14.85
2019-04-04T19:52:56.160Z,20.55
2019-04-04T19:55:22.330Z,19.77
2019-04-04T19:57:48.679Z,17.98
2019-04-04T20:00:14.840Z,16.12
2019-04-04T20:02:43.786Z,15.40
2019-04-04T20:05:08.882Z,16.60
2019-04-04T20:07:35.054Z,17.82
2019-04-04T20:10:01.205Z,16.07
2019-04-04T20:12:27.366Z,14.40
2019-04-04T20:14:53.528Z,14.50
2019-04-04T20:17:19.686Z,14.40
2019-04-04T20:19:45.854Z,14.43
2019-04-04T20:22:12.109Z,14.58
2019-04-04T20:24:38.296Z,14.80
2019-04-04T20:27:04.464Z,14.20
2019-04-04T20:29:30.608Z,13.70
2019-04-04T20:31:56.771Z,14.40
2019-04-04T20:34:22.918Z,14.05
2019-04-04T20:36:49.077Z,12.23
2019-04-04T20:39:15.236Z,13.18
2019-04-04T20:41:41.465Z,13.03
2019-04-04T20:44:07.632Z,13.32
2019-04-04T20:46:33.792Z,12.95
2019-04-04T20:48:59.953Z,13.10
2019-04-04T20:51:26.149Z,13.03
2019-04-04T20:53:52.305Z,12.95
2019-04-04T20:56:18.462Z,13.15
2019-04-04T20:58:44.623Z,13.85
2019-04-04T21:01:10.860Z,13.50
2019-04-04T21:03:37.020Z,12.65
2019-04-04T21:06:03.406Z,13.98
2019-04-04T21:08:29.690Z,15.05
2019-04-04T21:10:55.869Z,14.47
2019-04-04T21:13:21.980Z,15.05
2019-04-04T21:15:48.170Z,15.08
2019-04-04T21:18:14.339Z,15.35
2019-04-04T21:20:40.519Z,17.12
2019-04-04T21:23:06.693Z,16.90
2019-04-04T21:25:32.873Z,16.80
2019-04-04T21:27:59.027Z,16.75
2019-04-04T21:30:25.199Z,15.43
2019-04-04T21:32:51.369Z,14.47
2019-04-04T21:35:17.539Z,15.38
2019-04-04T21:37:43.686Z,15.10
2019-04-04T21:40:09.947Z,14.23
2019-04-04T21:42:36.105Z,14.35
2019-04-04T21:45:02.273Z,14.55
2019-04-04T21:47:28.454Z,13.25
2019-04-04T21:49:54.609Z,12.18
2019-04-04T21:52:21.746Z,13.90
2019-04-04T21:54:47.914Z,12.00
2019-04-04T21:57:14.069Z,12.80
2019-04-04T21:59:40.229Z,13.15
2019-04-04T22:02:06.382Z,13.72
2019-04-04T22:04:32.554Z,13.05
2019-04-04T22:06:58.714Z,13.15
2019-04-04T22:09:24.881Z,12.55
2019-04-04T22:11:51.104Z,12.75
2019-04-04T22:14:22.097Z,12.40
2019-04-04T22:16:45.161Z,12.65
2019-04-04T22:19:11.313Z,12.23
2019-04-04T22:21:37.481Z,12.60
2019-04-04T22:24:03.628Z,12.35
2019-04-04T22:26:29.800Z,13.25
2019-04-04T22:28:55.965Z,12.20
2019-04-04T22:31:22.165Z,12.10
2019-04-04T22:33:48.337Z,12.15
2019-04-04T22:36:14.494Z,13.13
2019-04-04T22:38:40.658Z,12.58
2019-04-04T22:41:06.878Z,12.05
2019-04-04T22:43:33.036Z,11.85
2019-04-04T22:45:59.208Z,12.63
2019-04-04T22:48:25.364Z,11.78
2019-04-04T22:50:51.616Z,11.28
2019-04-04T22:53:17.780Z,11.85
2019-04-04T22:55:43.948Z,11.65
2019-04-04T22:58:10.103Z,11.85
2019-04-04T23:00:36.299Z,11.93
2019-04-04T23:03:02.536Z,12.03
2019-04-04T23:05:28.683Z,12.37
2019-04-04T23:07:54.852Z,11.70
2019-04-04T23:10:21.017Z,11.60
2019-04-04T23:12:47.188Z,11.97
2019-04-04T23:15:13.356Z,12.63
2019-04-04T23:17:39.511Z,12.25
2019-04-04T23:20:05.757Z,13.15
2019-04-04T23:22:31.908Z,12.18
2019-04-04T23:24:58.065Z,12.00
2019-04-04T23:27:24.278Z,12.88
2019-04-04T23:29:50.468Z,11.85
2019-04-04T23:32:16.636Z,11.90
2019-04-04T23:34:42.793Z,11.90
2019-04-04T23:37:08.957Z,12.13
2019-04-04T23:39:35.127Z,11.55
2019-04-04T23:42:01.273Z,12.10
2019-04-04T23:44:27.438Z,11.28
2019-04-04T23:46:53.598Z,11.55
2019-04-04T23:49:19.762Z,11.68
2019-04-04T23:51:45.929Z,12.28
2019-04-04T23:54:12.090Z,11.55
2019-04-04T23:56:38.250Z,11.83
2019-04-04T23:59:04.409Z,10.75
